LEMH Airport Information

Runway Information
Runway 01L Length 7710 ft width 148 ft
Elevation 277 ft Threshold 0 ft Heading 9
Runway 19R Length 7710 ft Width 148 ft
Elevation 298 ft Threshold 0 ft Heading 189
Runway 01R Length 6890 ft width 148 ft
Elevation 272 ft Threshold 0 ft Heading 9
Runway 19L Length 6890 ft Width 148 ft
Elevation 298 ft Threshold 0 ft Heading 189
Airport Frequencies
Type APP Name APP Frequency 119.65 MHZ
Type ATIS Name ATIS Frequency 112.6 MHZ
Type GND Name GND Frequency 121.75 MHZ
Type TWR Name TWR Frequency 118.2 MHZ
Airport Navaids
Type VOR-DME Name Menorca Frequency 112600 KHZ
Type NDB Name Menorca Frequency 344 KHZ
Airport Weather Information & NOTAM
ADDS - METARS form results

(0321 UTC 23 September 2021)
Data provider http://aviationweather.gov/metar/data/
 
METAR text: LEMH 230300Z AUTO 09012KT 9999 FEW012/// SCT017/// BKN110CB 23/21 Q1016
Conditions at: LEMH (MAHON/MENORCA IS, ES) observed 0300 UTC 23 September 2021
Temperature: 23.0°C (73°F)
Dewpoint: 21.0°C (70°F) [RH = 89%]
Pressure (altimeter): 30.00 inches Hg (1016.0 mb)
Winds: from the E (90 degrees) at 14 MPH (12 knots; 6.2 m/s)
Visibility: 6 or more miles (10+ km)
Ceiling: 11000 feet AGL
Clouds: few clouds at 1200 feet AGL
scattered clouds at 1700 feet AGL
broken clouds at 11000 feet AGL
Weather: no significant weather observed at this time

METAR text: LEMH 230230Z AUTO 09009KT 9999 FEW015/// SCT018/// BKN045CB 23/20 Q1017
Conditions at: LEMH (MAHON/MENORCA IS, ES) observed 0230 UTC 23 September 2021
Temperature: 23.0°C (73°F)
Dewpoint: 20.0°C (68°F) [RH = 83%]
Pressure (altimeter): 30.03 inches Hg (1017.0 mb)
Winds: from the E (90 degrees) at 10 MPH (9 knots; 4.6 m/s)
Visibility: 6 or more miles (10+ km)
Ceiling: 4500 feet AGL
Clouds: few clouds at 1500 feet AGL
scattered clouds at 1800 feet AGL
broken clouds at 4500 feet AGL
Weather: no significant weather observed at this time

Forecast for: LEMH (MAHON/MENORCA IS, ES)
Text: TAF LEMH 230200Z 2303/2403 08012KT 9999 SCT015 TX27/2312Z TN20/2305Z
Forecast period: 0300 UTC 23 September 2021 to 0300 UTC 24 September 2021
Forecast type: FROM: standard forecast or significant change
Winds: from the E (80 degrees) at 14 MPH (12 knots; 6.2 m/s)
Visibility: 6 or more miles (10+ km)
Ceiling: at least 12,000 feet AGL
Clouds: scattered clouds at 1500 feet AGL
Weather: no significant weather forecast for this period
Text: PROB30
Forecast period: 0300 to 0900 UTC 23 September 2021
Forecast type: TEMPORARY: The following changes expected for less than half the time period
Visibility: 2.49 miles (4.01 km)
Ceiling: 2000 feet AGL
Clouds: broken clouds at 2000 feet AGL
few clouds at 2500 feet AGL
Weather: SHRA  (rain showers)